createdAt,value
2023-05-08T00:00:39.285Z,3.57
2023-05-08T00:05:52.637Z,3.48
2023-05-08T00:10:57.828Z,3.39
2023-05-08T00:16:02.676Z,3.32
2023-05-08T00:21:07.437Z,3.27
2023-05-08T00:26:12.116Z,3.23
2023-05-08T00:31:16.037Z,3.10
2023-05-08T00:36:19.802Z,3.04
2023-05-08T00:41:24.138Z,3.01
2023-05-08T00:46:29.128Z,3.00
2023-05-08T00:51:34.605Z,2.97
2023-05-08T00:56:39.223Z,2.95
2023-05-08T01:01:44.652Z,2.94
2023-05-08T01:06:49.316Z,2.91
2023-05-08T01:12:20.578Z,2.87
2023-05-08T01:17:50.863Z,2.82
2023-05-08T01:23:33.941Z,2.80
2023-05-08T01:29:15.259Z,2.76
2023-05-08T01:34:28.791Z,2.74
2023-05-08T01:40:14.974Z,2.70
2023-05-08T01:45:27.633Z,2.68
2023-05-08T01:50:37.267Z,2.71
2023-05-08T01:55:43.068Z,2.71
2023-05-08T02:00:47.786Z,2.70
2023-05-08T02:05:52.815Z,2.65
2023-05-08T02:10:58.559Z,2.60
2023-05-08T02:16:03.285Z,2.58
2023-05-08T02:21:09.947Z,2.51
2023-05-08T02:26:18.057Z,2.43
2023-05-08T02:31:22.656Z,2.41
2023-05-08T02:36:29.861Z,2.39
2023-05-08T02:41:34.525Z,2.34
2023-05-08T02:47:07.499Z,2.30
2023-05-08T02:52:14.906Z,2.28
2023-05-08T02:57:57.739Z,2.25
2023-05-08T03:03:14.661Z,2.24
2023-05-08T03:08:27.190Z,2.22
2023-05-08T03:13:35.758Z,2.21
2023-05-08T03:18:53.893Z,2.18
2023-05-08T03:24:00.270Z,2.13
2023-05-08T03:29:04.857Z,2.11
2023-05-08T03:34:10.588Z,2.14
2023-05-08T03:39:15.908Z,2.22
2023-05-08T03:44:20.964Z,2.34
2023-05-08T03:49:30.217Z,2.43
2023-05-08T03:54:40.009Z,2.57
2023-05-08T04:00:28.716Z,2.85
2023-05-08T04:05:38.211Z,3.38
2023-05-08T04:10:48.815Z,5.47
2023-05-08T04:16:07.572Z,6.91
2023-05-08T04:21:17.024Z,8.10
2023-05-08T04:26:21.298Z,8.79
2023-05-08T04:31:27.579Z,9.48
2023-05-08T04:36:32.227Z,9.95
2023-05-08T04:41:37.690Z,10.42
2023-05-08T04:46:42.067Z,10.76
2023-05-08T04:51:46.920Z,10.96
2023-05-08T04:56:51.220Z,11.22
2023-05-08T05:01:55.160Z,11.42
2023-05-08T05:06:59.470Z,10.25
2023-05-08T05:12:05.349Z,8.68
2023-05-08T05:17:09.387Z,7.92
2023-05-08T05:22:13.895Z,7.58
2023-05-08T05:27:19.952Z,7.45
2023-05-08T05:32:26.244Z,7.34
2023-05-08T05:37:30.634Z,7.29
2023-05-08T05:42:34.631Z,7.33
2023-05-08T05:47:39.516Z,7.33
2023-05-08T05:52:43.752Z,7.38
2023-05-08T05:57:47.778Z,7.45
2023-05-08T06:02:52.959Z,7.59
2023-05-08T06:07:58.427Z,7.84
2023-05-08T06:13:02.643Z,8.02
2023-05-08T06:18:07.154Z,8.08
2023-05-08T06:23:11.390Z,8.27
2023-05-08T06:28:15.114Z,8.26
2023-05-08T06:33:20.677Z,8.28
2023-05-08T06:38:25.611Z,8.38
2023-05-08T06:43:30.919Z,8.42
2023-05-08T06:48:35.393Z,8.41
2023-05-08T06:53:39.339Z,8.68
2023-05-08T06:58:46.366Z,8.85
2023-05-08T07:03:55.337Z,8.96
2023-05-08T07:09:00.657Z,9.19
2023-05-08T07:14:04.857Z,9.20
2023-05-08T07:19:09.530Z,9.19
2023-05-08T07:24:15.050Z,9.11
2023-05-08T07:29:21.964Z,9.06
2023-05-08T07:34:26.578Z,9.23
2023-05-08T07:39:30.188Z,9.34
2023-05-08T07:44:43.517Z,9.43
2023-05-08T07:49:54.833Z,9.80
2023-05-08T07:54:58.620Z,9.85
2023-05-08T08:00:03.473Z,9.80
2023-05-08T08:05:17.337Z,10.10
2023-05-08T08:10:21.277Z,10.18
2023-05-08T08:15:25.154Z,10.38
2023-05-08T08:20:29.789Z,10.54
2023-05-08T08:25:34.204Z,10.74
2023-05-08T08:30:38.010Z,10.92
2023-05-08T08:35:41.857Z,11.11
2023-05-08T08:40:47.376Z,11.11
2023-05-08T08:45:53.094Z,11.23
2023-05-08T08:51:01.233Z,11.38
2023-05-08T08:56:08.442Z,11.55
2023-05-08T09:01:17.368Z,11.71
2023-05-08T09:06:23.192Z,11.65
2023-05-08T09:11:29.909Z,11.63
2023-05-08T09:16:35.832Z,11.63
2023-05-08T09:21:40.165Z,11.55
2023-05-08T09:26:45.150Z,11.60
2023-05-08T09:31:51.239Z,11.57
2023-05-08T09:37:31.143Z,11.49
2023-05-08T09:42:39.865Z,11.55
2023-05-08T09:47:49.005Z,11.53
2023-05-08T09:52:53.413Z,11.71
2023-05-08T09:58:00.553Z,11.83
2023-05-08T10:03:05.377Z,11.87
2023-05-08T10:08:21.024Z,11.89
2023-05-08T10:13:26.541Z,11.75
2023-05-08T10:18:36.698Z,11.87
2023-05-08T10:23:43.280Z,11.89
2023-05-08T10:28:57.448Z,12.03
2023-05-08T10:34:04.604Z,12.00
2023-05-08T10:39:09.763Z,12.01
2023-05-08T10:44:14.368Z,12.13
2023-05-08T10:49:44.952Z,12.34
2023-05-08T10:54:59.305Z,12.40
2023-05-08T11:00:07.282Z,12.71
2023-05-08T11:05:21.592Z,12.76
2023-05-08T11:10:36.165Z,12.91
2023-05-08T11:15:42.208Z,12.98
2023-05-08T11:21:00.740Z,13.05
2023-05-08T11:26:08.527Z,13.18
2023-05-08T11:31:14.363Z,13.27
2023-05-08T11:36:26.298Z,13.20
2023-05-08T11:41:30.107Z,13.10
2023-05-08T11:46:40.570Z,12.73
2023-05-08T11:51:49.547Z,12.85
2023-05-08T11:56:58.192Z,13.33
2023-05-08T12:02:08.485Z,13.60
2023-05-08T12:07:13.514Z,13.74
2023-05-08T12:12:17.379Z,13.87
2023-05-08T12:17:21.346Z,13.82
2023-05-08T12:22:25.233Z,13.85
2023-05-08T12:27:28.975Z,13.94
2023-05-08T12:32:35.378Z,14.05
2023-05-08T12:37:39.486Z,14.13
2023-05-08T12:42:44.358Z,14.06
2023-05-08T12:47:52.143Z,14.23
2023-05-08T12:53:03.914Z,14.33
2023-05-08T12:58:16.124Z,14.34
2023-05-08T13:03:28.561Z,14.20
2023-05-08T13:08:37.414Z,14.35
2023-05-08T13:13:41.456Z,14.67
2023-05-08T13:18:45.449Z,14.76
2023-05-08T13:23:49.397Z,14.66
2023-05-08T13:28:55.473Z,14.61
2023-05-08T13:34:00.464Z,14.78
2023-05-08T13:39:04.456Z,14.74
2023-05-08T13:44:08.310Z,14.80
2023-05-08T13:49:12.128Z,14.89
2023-05-08T13:54:16.053Z,14.82
2023-05-08T13:59:20.145Z,14.85
2023-05-08T14:04:24.024Z,14.91
2023-05-08T14:09:27.771Z,15.07
2023-05-08T14:14:32.550Z,15.10
2023-05-08T14:19:38.368Z,15.09
2023-05-08T14:24:42.311Z,15.21
2023-05-08T14:29:55.022Z,15.08
2023-05-08T14:34:59.048Z,15.02
2023-05-08T14:40:02.854Z,15.19
2023-05-08T14:45:07.645Z,15.10
2023-05-08T14:50:13.355Z,15.10
2023-05-08T14:55:21.246Z,15.15
2023-05-08T15:00:28.264Z,15.14
2023-05-08T15:05:32.600Z,15.14
2023-05-08T15:10:37.281Z,15.12
2023-05-08T15:15:41.472Z,15.24
2023-05-08T15:20:45.286Z,15.24
2023-05-08T15:25:49.963Z,15.25
2023-05-08T15:30:53.851Z,15.24
2023-05-08T15:35:59.012Z,15.22
2023-05-08T15:41:02.870Z,15.17
2023-05-08T15:46:08.316Z,15.14
2023-05-08T15:51:13.013Z,15.10
2023-05-08T15:56:17.030Z,15.19
2023-05-08T16:01:20.980Z,15.26
2023-05-08T16:06:24.666Z,15.22
2023-05-08T16:11:32.511Z,15.15
2023-05-08T16:17:01.252Z,15.19
2023-05-08T16:22:14.796Z,15.16
2023-05-08T16:27:18.308Z,15.10
2023-05-08T16:32:22.167Z,15.02
2023-05-08T16:37:26.836Z,15.04
2023-05-08T16:42:35.115Z,15.05
2023-05-08T16:47:44.919Z,15.50
2023-05-08T16:52:48.713Z,17.11
2023-05-08T16:57:55.567Z,18.34
2023-05-08T17:03:00.627Z,19.09
2023-05-08T17:08:05.316Z,19.35
2023-05-08T17:13:09.903Z,19.65
2023-05-08T17:18:13.994Z,20.06
2023-05-08T17:23:17.862Z,20.03
2023-05-08T17:28:21.909Z,19.94
2023-05-08T17:33:26.017Z,19.54
2023-05-08T17:38:30.972Z,18.35
2023-05-08T17:43:35.764Z,17.11
2023-05-08T17:48:39.557Z,16.01
2023-05-08T17:53:43.808Z,15.05
2023-05-08T17:58:48.493Z,14.39
2023-05-08T18:03:54.032Z,13.81
2023-05-08T18:08:58.316Z,13.34
2023-05-08T18:14:02.307Z,12.94
2023-05-08T18:19:06.355Z,12.59
2023-05-08T18:24:10.527Z,12.25
2023-05-08T18:29:15.013Z,11.95
2023-05-08T18:34:19.081Z,11.65
2023-05-08T18:39:24.404Z,11.36
2023-05-08T18:44:29.981Z,11.13
2023-05-08T18:49:35.605Z,10.92
2023-05-08T18:54:44.281Z,10.70
2023-05-08T18:59:51.769Z,10.50
2023-05-08T19:04:58.672Z,10.29
2023-05-08T19:10:02.702Z,10.08
2023-05-08T19:15:09.694Z,9.90
2023-05-08T19:20:14.846Z,9.71
2023-05-08T19:25:21.292Z,9.53
2023-05-08T19:30:25.321Z,9.39
2023-05-08T19:35:30.395Z,9.27
2023-05-08T19:40:44.710Z,9.18
2023-05-08T19:45:56.372Z,9.07
2023-05-08T19:51:08.093Z,8.94
2023-05-08T19:56:12.610Z,8.91
2023-05-08T20:01:16.691Z,8.84
2023-05-08T20:06:21.230Z,8.73
2023-05-08T20:11:25.409Z,8.59
2023-05-08T20:16:29.950Z,8.49
2023-05-08T20:21:35.252Z,8.46
2023-05-08T20:26:39.303Z,8.38
2023-05-08T20:31:44.786Z,8.29
2023-05-08T20:36:49.126Z,8.21
2023-05-08T20:41:53.068Z,8.15
2023-05-08T20:46:57.080Z,8.05
2023-05-08T20:52:00.984Z,7.97
2023-05-08T20:57:08.908Z,7.87
2023-05-08T21:02:13.343Z,7.76
2023-05-08T21:07:17.826Z,7.64
2023-05-08T21:12:22.248Z,7.49
2023-05-08T21:17:26.314Z,7.30
2023-05-08T21:22:30.939Z,7.12
2023-05-08T21:27:52.828Z,6.95
2023-05-08T21:32:58.555Z,6.80
2023-05-08T21:38:03.588Z,6.65
2023-05-08T21:43:07.600Z,6.50
2023-05-08T21:48:12.061Z,6.34
2023-05-08T21:53:20.541Z,6.21
2023-05-08T21:58:24.921Z,6.09
2023-05-08T22:03:33.334Z,5.94
2023-05-08T22:08:37.597Z,5.82
2023-05-08T22:13:42.311Z,5.73
2023-05-08T22:18:46.949Z,5.62
2023-05-08T22:23:52.131Z,5.58
2023-05-08T22:28:57.779Z,5.49
2023-05-08T22:34:01.947Z,5.42
2023-05-08T22:39:07.432Z,5.37
2023-05-08T22:44:11.927Z,5.34
2023-05-08T22:49:16.330Z,5.29
2023-05-08T22:54:20.130Z,5.21
2023-05-08T22:59:26.042Z,5.13
2023-05-08T23:04:30.486Z,5.08
2023-05-08T23:09:35.693Z,5.08
2023-05-08T23:14:39.608Z,5.02
2023-05-08T23:19:45.204Z,4.93
2023-05-08T23:24:51.508Z,4.85
2023-05-08T23:29:56.442Z,4.78
2023-05-08T23:35:01.925Z,4.72
2023-05-08T23:40:12.452Z,4.62
2023-05-08T23:45:17.664Z,4.53
2023-05-08T23:50:22.805Z,4.51
2023-05-08T23:55:27.379Z,4.49
